sensor_id;sensor_type;location;lat;lon;timestamp;pressure;altitude;pressure_sealevel;temperature;humidity
82262;BME280;71861;52.364;6.580;2024-01-06T04:00:11;100692.00;;;1.77;100.00
82262;BME280;71861;52.364;6.580;2024-01-06T04:02:37;100697.75;;;1.80;100.00
82262;BME280;71861;52.364;6.580;2024-01-06T04:05:02;100701.94;;;1.81;100.00
82262;BME280;71861;52.364;6.580;2024-01-06T04:07:30;100697.03;;;1.78;100.00
82262;BME280;71861;52.364;6.580;2024-01-06T04:09:55;100704.00;;;1.76;100.00
82262;BME280;71861;52.364;6.580;2024-01-06T04:12:20;100708.31;;;1.76;100.00
82262;BME280;71861;52.364;6.580;2024-01-06T04:14:46;100704.81;;;1.77;100.00
82262;BME280;71861;52.364;6.580;2024-01-06T04:17:11;100704.72;;;1.78;100.00
82262;BME280;71861;52.364;6.580;2024-01-06T04:19:36;100706.44;;;1.77;100.00
82262;BME280;71861;52.364;6.580;2024-01-06T04:22:01;100709.94;;;1.77;100.00
82262;BME280;71861;52.364;6.580;2024-01-06T04:24:27;100711.78;;;1.74;100.00
82262;BME280;71861;52.364;6.580;2024-01-06T04:26:52;100713.66;;;1.73;100.00
82262;BME280;71861;52.364;6.580;2024-01-06T04:29:17;100718.88;;;1.71;100.00
82262;BME280;71861;52.364;6.580;2024-01-06T04:31:43;100717.00;;;1.73;100.00
82262;BME280;71861;52.364;6.580;2024-01-06T04:34:08;100719.78;;;1.70;100.00
82262;BME280;71861;52.364;6.580;2024-01-06T04:36:33;100725.84;;;1.69;100.00
82262;BME280;71861;52.364;6.580;2024-01-06T04:38:59;100721.75;;;1.66;100.00
82262;BME280;71861;52.364;6.580;2024-01-06T04:41:24;100730.34;;;1.65;100.00
82262;BME280;71861;52.364;6.580;2024-01-06T04:43:49;100729.72;;;1.62;100.00
82262;BME280;71861;52.364;6.580;2024-01-06T04:46:14;100735.88;;;1.59;100.00
82262;BME280;71861;52.364;6.580;2024-01-06T04:48:43;100733.31;;;1.59;100.00
82262;BME280;71861;52.364;6.580;2024-01-06T04:51:09;100727.47;;;1.57;100.00
82262;BME280;71861;52.364;6.580;2024-01-06T04:53:38;100735.16;;;1.57;100.00
82262;BME280;71861;52.364;6.580;2024-01-06T04:56:04;100732.81;;;1.54;100.00
82262;BME280;71861;52.364;6.580;2024-01-06T04:58:29;100747.28;;;1.55;100.00
82262;BME280;71861;52.364;6.580;2024-01-06T05:00:54;100735.78;;;1.48;100.00
82262;BME280;71861;52.364;6.580;2024-01-06T05:03:20;100745.41;;;1.57;100.00
82262;BME280;71861;52.364;6.580;2024-01-06T05:05:45;100746.22;;;1.58;100.00
82262;BME280;71861;52.364;6.580;2024-01-06T05:08:10;100745.41;;;1.57;100.00
82262;BME280;71861;52.364;6.580;2024-01-06T05:10:36;100747.16;;;1.57;100.00
82262;BME280;71861;52.364;6.580;2024-01-06T05:13:01;100757.31;;;1.58;100.00
82262;BME280;71861;52.364;6.580;2024-01-06T05:15:26;100747.06;;;1.58;100.00
82262;BME280;71861;52.364;6.580;2024-01-06T05:17:51;100756.47;;;1.58;100.00
82262;BME280;71861;52.364;6.580;2024-01-06T05:20:17;100760.75;;;1.57;100.00
82262;BME280;71861;52.364;6.580;2024-01-06T05:22:42;100759.88;;;1.58;100.00
82262;BME280;71861;52.364;6.580;2024-01-06T05:25:07;100766.00;;;1.56;100.00
82262;BME280;71861;52.364;6.580;2024-01-06T05:27:34;100763.53;;;1.54;100.00
82262;BME280;71861;52.364;6.580;2024-01-06T05:29:59;100762.63;;;1.55;100.00
82262;BME280;71861;52.364;6.580;2024-01-06T05:32:24;100766.94;;;1.55;100.00
82262;BME280;71861;52.364;6.580;2024-01-06T05:34:50;100771.94;;;1.56;100.00
82262;BME280;71861;52.364;6.580;2024-01-06T05:37:15;100780.47;;;1.57;100.00
82262;BME280;71861;52.364;6.580;2024-01-06T05:39:40;100776.25;;;1.56;100.00
82262;BME280;71861;52.364;6.580;2024-01-06T05:42:07;100777.16;;;1.55;100.00
82262;BME280;71861;52.364;6.580;2024-01-06T05:44:35;100789.88;;;1.56;100.00
82262;BME280;71861;52.364;6.580;2024-01-06T05:47:01;100796.53;;;1.59;100.00
82262;BME280;71861;52.364;6.580;2024-01-06T05:49:27;100794.38;;;1.53;100.00
82262;BME280;71861;52.364;6.580;2024-01-06T05:51:52;100794.38;;;1.53;100.00
82262;BME280;71861;52.364;6.580;2024-01-06T05:54:17;100801.34;;;1.51;100.00
82262;BME280;71861;52.364;6.580;2024-01-06T05:56:43;100799.59;;;1.51;100.00
82262;BME280;71861;52.364;6.580;2024-01-06T05:59:08;100805.03;;;1.47;100.00
82262;BME280;71861;52.364;6.580;2024-01-06T06:01:33;100799.09;;;1.46;100.00
82262;BME280;71861;52.364;6.580;2024-01-06T06:03:58;100817.94;;;1.45;100.00
82262;BME280;71861;52.364;6.580;2024-01-06T06:06:24;100818.97;;;1.43;100.00
82262;BME280;71861;52.364;6.580;2024-01-06T06:08:49;100821.72;;;1.40;100.00
82262;BME280;71861;52.364;6.580;2024-01-06T06:11:14;100829.41;;;1.40;100.00
82262;BME280;71861;52.364;6.580;2024-01-06T06:13:40;100826.00;;;1.39;100.00
82262;BME280;71861;52.364;6.580;2024-01-06T06:16:06;100835.31;;;1.40;100.00
82262;BME280;71861;52.364;6.580;2024-01-06T06:18:32;100832.84;;;1.39;100.00
82262;BME280;71861;52.364;6.580;2024-01-06T06:20:59;100834.09;;;1.33;100.00
82262;BME280;71861;52.364;6.580;2024-01-06T06:23:24;100846.25;;;1.30;100.00
82262;BME280;71861;52.364;6.580;2024-01-06T06:25:49;100837.16;;;1.26;100.00
82262;BME280;71861;52.364;6.580;2024-01-06T06:28:15;100855.06;;;1.26;100.00
82262;BME280;71861;52.364;6.580;2024-01-06T06:30:40;100861.28;;;1.22;100.00
82262;BME280;71861;52.364;6.580;2024-01-06T06:33:06;100869.06;;;1.20;100.00
82262;BME280;71861;52.364;6.580;2024-01-06T06:35:31;100873.69;;;1.15;100.00
82262;BME280;71861;52.364;6.580;2024-01-06T06:37:56;100878.91;;;1.14;100.00
82262;BME280;71861;52.364;6.580;2024-01-06T06:40:22;100887.38;;;1.14;100.00
82262;BME280;71861;52.364;6.580;2024-01-06T06:42:47;100882.34;;;1.13;100.00
82262;BME280;71861;52.364;6.580;2024-01-06T06:45:13;100892.50;;;1.14;100.00
82262;BME280;71861;52.364;6.580;2024-01-06T06:47:38;100900.25;;;1.13;100.00
82262;BME280;71861;52.364;6.580;2024-01-06T06:50:04;100901.09;;;1.13;100.00
82262;BME280;71861;52.364;6.580;2024-01-06T06:52:29;100906.94;;;1.15;100.00
82262;BME280;71861;52.364;6.580;2024-01-06T06:54:54;100910.41;;;1.14;100.00
82262;BME280;71861;52.364;6.580;2024-01-06T06:57:20;100907.94;;;1.13;100.00
82262;BME280;71861;52.364;6.580;2024-01-06T06:59:45;100917.38;;;1.12;100.00
82262;BME280;71861;52.364;6.580;2024-01-06T07:02:10;100916.44;;;1.13;100.00
82262;BME280;71861;52.364;6.580;2024-01-06T07:04:36;100924.13;;;1.13;100.00
82262;BME280;71861;52.364;6.580;2024-01-06T07:07:01;100931.06;;;1.11;100.00
82262;BME280;71861;52.364;6.580;2024-01-06T07:09:26;100925.97;;;1.11;100.00
82262;BME280;71861;52.364;6.580;2024-01-06T07:11:52;100937.13;;;1.10;100.00
82262;BME280;71861;52.364;6.580;2024-01-06T07:14:17;100938.03;;;1.09;100.00
82262;BME280;71861;52.364;6.580;2024-01-06T07:16:42;100949.91;;;1.10;100.00
82262;BME280;71861;52.364;6.580;2024-01-06T07:19:08;100941.50;;;1.08;100.00
82262;BME280;71861;52.364;6.580;2024-01-06T07:21:33;100946.53;;;1.10;100.00
82262;BME280;71861;52.364;6.580;2024-01-06T07:23:58;100947.34;;;1.10;100.00
82262;BME280;71861;52.364;6.580;2024-01-06T07:26:24;100957.03;;;1.05;100.00
82262;BME280;71861;52.364;6.580;2024-01-06T07:28:49;100954.59;;;1.04;100.00
82262;BME280;71861;52.364;6.580;2024-01-06T07:31:14;100956.69;;;0.97;100.00
82262;BME280;71861;52.364;6.580;2024-01-06T07:33:40;100967.66;;;0.99;100.00
82262;BME280;71861;52.364;6.580;2024-01-06T07:36:05;100971.94;;;0.99;100.00
82262;BME280;71861;52.364;6.580;2024-01-06T07:38:31;100969.47;;;0.97;100.00
82262;BME280;71861;52.364;6.580;2024-01-06T07:40:56;100974.50;;;0.99;100.00
82262;BME280;71861;52.364;6.580;2024-01-06T07:43:22;100962.72;;;0.96;100.00
82262;BME280;71861;52.364;6.580;2024-01-06T07:45:47;100978.09;;;0.96;100.00
82262;BME280;71861;52.364;6.580;2024-01-06T07:48:13;100985.03;;;0.94;100.00
82262;BME280;71861;52.364;6.580;2024-01-06T07:50:39;100985.03;;;0.94;100.00
82262;BME280;71861;52.364;6.580;2024-01-06T07:53:04;100980.66;;;0.82;100.00
82262;BME280;71861;52.364;6.580;2024-01-06T07:55:29;100995.44;;;0.91;100.00
82262;BME280;71861;52.364;6.580;2024-01-06T07:57:54;100995.25;;;0.94;100.00
82262;BME280;71861;52.364;6.580;2024-01-06T08:00:20;100997.91;;;0.93;100.00
82262;BME280;71861;52.364;6.580;2024-01-06T08:02:45;101008.97;;;0.93;100.00
82262;BME280;71861;52.364;6.580;2024-01-06T08:05:10;101010.63;;;0.94;100.00
82262;BME280;71861;52.364;6.580;2024-01-06T08:07:36;101014.84;;;0.95;100.00
82262;BME280;71861;52.364;6.580;2024-01-06T08:10:02;101009.91;;;0.92;100.00
82262;BME280;71861;52.364;6.580;2024-01-06T08:12:30;101019.41;;;0.90;100.00
82262;BME280;71861;52.364;6.580;2024-01-06T08:14:56;101025.63;;;0.86;100.00
82262;BME280;71861;52.364;6.580;2024-01-06T08:17:21;101040.25;;;0.84;100.00
82262;BME280;71861;52.364;6.580;2024-01-06T08:19:48;101033.50;;;0.83;100.00
82262;BME280;71861;52.364;6.580;2024-01-06T08:22:13;101033.63;;;0.80;100.00
82262;BME280;71861;52.364;6.580;2024-01-06T08:24:39;101037.94;;;0.80;100.00
82262;BME280;71861;52.364;6.580;2024-01-06T08:27:04;101042.31;;;0.78;100.00
82262;BME280;71861;52.364;6.580;2024-01-06T08:29:30;101053.38;;;0.78;100.00
82262;BME280;71861;52.364;6.580;2024-01-06T08:31:55;101051.63;;;0.79;100.00
82262;BME280;71861;52.364;6.580;2024-01-06T08:34:21;101061.06;;;0.78;100.00
82262;BME280;71861;52.364;6.580;2024-01-06T08:36:46;101062.06;;;0.76;100.00
82262;BME280;71861;52.364;6.580;2024-01-06T08:39:12;101062.88;;;0.76;100.00
82262;BME280;71861;52.364;6.580;2024-01-06T08:41:38;101069.44;;;0.80;100.00
82262;BME280;71861;52.364;6.580;2024-01-06T08:44:04;101066.19;;;0.78;100.00
82262;BME280;71861;52.364;6.580;2024-01-06T08:46:29;101079.78;;;0.79;100.00
82262;BME280;71861;52.364;6.580;2024-01-06T08:48:55;101088.28;;;0.79;100.00
82262;BME280;71861;52.364;6.580;2024-01-06T08:51:21;101079.97;;;0.76;100.00
82262;BME280;71861;52.364;6.580;2024-01-06T08:53:46;101078.69;;;0.69;100.00
82262;BME280;71861;52.364;6.580;2024-01-06T08:56:11;101058.84;;;0.58;100.00
82262;BME280;71861;52.364;6.580;2024-01-06T08:58:37;101093.84;;;0.72;100.00
82262;BME280;71861;52.364;6.580;2024-01-06T09:01:02;101089.66;;;0.71;100.00
82262;BME280;71861;52.364;6.580;2024-01-06T09:03:27;101099.22;;;0.67;100.00
82262;BME280;71861;52.364;6.580;2024-01-06T09:05:55;101105.97;;;0.68;100.00
82262;BME280;71861;52.364;6.580;2024-01-06T09:08:21;101101.78;;;0.67;100.00
82262;BME280;71861;52.364;6.580;2024-01-06T09:10:46;101105.97;;;0.68;100.00
82262;BME280;71861;52.364;6.580;2024-01-06T09:13:11;101109.28;;;0.70;100.00
82262;BME280;71861;52.364;6.580;2024-01-06T09:15:37;101111.00;;;0.70;100.00
82262;BME280;71861;52.364;6.580;2024-01-06T09:18:02;101122.91;;;0.71;100.00
82262;BME280;71861;52.364;6.580;2024-01-06T09:20:28;101116.97;;;0.70;100.00
82262;BME280;71861;52.364;6.580;2024-01-06T09:22:53;101129.56;;;0.73;100.00
82262;BME280;71861;52.364;6.580;2024-01-06T09:25:18;101127.00;;;0.73;100.00
82262;BME280;71861;52.364;6.580;2024-01-06T09:27:44;101138.69;;;0.77;100.00
82262;BME280;71861;52.364;6.580;2024-01-06T09:30:10;101142.00;;;0.79;100.00
82262;BME280;71861;52.364;6.580;2024-01-06T09:32:35;101145.03;;;0.86;100.00
82262;BME280;71861;52.364;6.580;2024-01-06T09:35:00;101138.44;;;0.82;100.00
82262;BME280;71861;52.364;6.580;2024-01-06T09:37:25;101144.56;;;0.79;100.00
82262;BME280;71861;52.364;6.580;2024-01-06T09:39:51;101146.94;;;0.82;100.00
82262;BME280;71861;52.364;6.580;2024-01-06T09:42:16;101151.22;;;0.82;100.00
82262;BME280;71861;52.364;6.580;2024-01-06T09:44:42;101156.50;;;0.79;100.00
82262;BME280;71861;52.364;6.580;2024-01-06T09:47:10;101170.63;;;0.86;100.00
82262;BME280;71861;52.364;6.580;2024-01-06T09:49:38;101164.00;;;0.82;100.00
82262;BME280;71861;52.364;6.580;2024-01-06T09:52:10;101174.41;;;0.79;100.00
82262;BME280;71861;52.364;6.580;2024-01-06T09:54:41;101175.44;;;0.76;100.00
82262;BME280;71861;52.364;6.580;2024-01-06T09:57:10;101168.59;;;0.77;100.00
82262;BME280;71861;52.364;6.580;2024-01-06T09:59:35;101177.25;;;0.74;100.00
82262;BME280;71861;52.364;6.580;2024-01-06T10:02:03;101179.44;;;0.80;100.00
82262;BME280;71861;52.364;6.580;2024-01-06T10:04:29;101153.94;;;0.65;100.00
82262;BME280;71861;52.364;6.580;2024-01-06T10:06:54;101183.75;;;0.80;100.00
82262;BME280;71861;52.364;6.580;2024-01-06T10:09:26;101184.47;;;0.82;100.00
82262;BME280;71861;52.364;6.580;2024-01-06T10:11:55;101189.44;;;0.85;100.00
82262;BME280;71861;52.364;6.580;2024-01-06T10:14:21;101192.72;;;0.87;100.00
82262;BME280;71861;52.364;6.580;2024-01-06T10:16:46;101195.09;;;0.90;100.00
82262;BME280;71861;52.364;6.580;2024-01-06T10:19:14;101195.94;;;0.90;100.00
82262;BME280;71861;52.364;6.580;2024-01-06T10:21:39;101198.31;;;0.93;100.00
82262;BME280;71861;52.364;6.580;2024-01-06T10:24:07;101199.06;;;0.95;100.00
82262;BME280;71861;52.364;6.580;2024-01-06T10:26:33;101202.34;;;0.97;100.00
82262;BME280;71861;52.364;6.580;2024-01-06T10:28:58;101207.53;;;0.96;100.00
82262;BME280;71861;52.364;6.580;2024-01-06T10:31:25;101215.03;;;0.99;100.00
82262;BME280;71861;52.364;6.580;2024-01-06T10:33:51;101220.06;;;1.00;100.00
82262;BME280;71861;52.364;6.580;2024-01-06T10:36:17;101225.19;;;1.00;100.00
82262;BME280;71861;52.364;6.580;2024-01-06T10:38:44;101227.03;;;0.98;100.00
82262;BME280;71861;52.364;6.580;2024-01-06T10:41:11;101227.84;;;0.99;100.00
82262;BME280;71861;52.364;6.580;2024-01-06T10:43:37;101227.84;;;0.99;100.00
82262;BME280;71861;52.364;6.580;2024-01-06T10:46:06;101227.84;;;0.99;100.00
82262;BME280;71861;52.364;6.580;2024-01-06T10:48:36;101219.53;;;0.95;100.00
82262;BME280;71861;52.364;6.580;2024-01-06T10:51:03;101224.00;;;0.92;100.00
82262;BME280;71861;52.364;6.580;2024-01-06T10:53:32;101215.66;;;0.88;100.00
82262;BME280;71861;52.364;6.580;2024-01-06T10:55:59;101235.94;;;0.91;100.00
82262;BME280;71861;52.364;6.580;2024-01-06T10:58:25;101238.34;;;0.94;100.00
82262;BME280;71861;52.364;6.580;2024-01-06T11:00:51;101242.56;;;0.95;100.00
82262;BME280;71861;52.364;6.580;2024-01-06T11:03:17;101242.38;;;0.98;100.00
82262;BME280;71861;52.364;6.580;2024-01-06T11:05:43;101243.28;;;0.97;100.00
82262;BME280;71861;52.364;6.580;2024-01-06T11:08:09;101238.25;;;0.96;100.00
82262;BME280;71861;52.364;6.580;2024-01-06T11:10:36;101245.75;;;0.99;100.00
82262;BME280;71861;52.364;6.580;2024-01-06T11:13:11;101248.97;;;1.02;100.00
82262;BME280;71861;52.364;6.580;2024-01-06T11:15:42;101255.00;;;1.01;100.00
82262;BME280;71861;52.364;6.580;2024-01-06T11:18:07;101255.75;;;1.03;100.00
82262;BME280;71861;52.364;6.580;2024-01-06T11:20:33;101254.84;;;1.04;100.00
82262;BME280;71861;52.364;6.580;2024-01-06T11:23:18;101263.25;;;1.06;100.00
82262;BME280;71861;52.364;6.580;2024-01-06T11:25:47;101263.34;;;1.05;100.00
82262;BME280;71861;52.364;6.580;2024-01-06T11:28:12;101257.22;;;1.07;100.00
82262;BME280;71861;52.364;6.580;2024-01-06T11:30:38;101257.22;;;1.07;100.00
82262;BME280;71861;52.364;6.580;2024-01-06T11:33:05;101264.81;;;1.09;100.00
82262;BME280;71861;52.364;6.580;2024-01-06T11:35:30;101269.09;;;1.08;100.00
82262;BME280;71861;52.364;6.580;2024-01-06T11:38:02;101265.06;;;1.04;100.00
82262;BME280;71861;52.364;6.580;2024-01-06T11:40:34;101267.81;;;1.01;100.00
82262;BME280;71861;52.364;6.580;2024-01-06T11:43:03;101275.47;;;1.01;100.00
82262;BME280;71861;52.364;6.580;2024-01-06T11:45:30;101273.66;;;1.03;100.00
82262;BME280;71861;52.364;6.580;2024-01-06T11:47:58;101276.22;;;1.03;100.00
82262;BME280;71861;52.364;6.580;2024-01-06T11:50:28;101271.03;;;1.05;100.00
82262;BME280;71861;52.364;6.580;2024-01-06T11:52:54;101273.66;;;1.03;100.00
82262;BME280;71861;52.364;6.580;2024-01-06T11:55:21;101272.75;;;1.04;100.00
82262;BME280;71861;52.364;6.580;2024-01-06T11:57:46;101272.75;;;1.04;100.00
82262;BME280;71861;52.364;6.580;2024-01-06T12:00:13;101276.06;;;1.06;100.00
82262;BME280;71861;52.364;6.580;2024-01-06T12:02:41;101275.13;;;1.07;100.00
82262;BME280;71861;52.364;6.580;2024-01-06T12:05:15;101275.13;;;1.07;100.00
82262;BME280;71861;52.364;6.580;2024-01-06T12:07:43;101268.09;;;1.11;100.00
82262;BME280;71861;52.364;6.580;2024-01-06T12:10:09;101267.09;;;1.13;100.00
82262;BME280;71861;52.364;6.580;2024-01-06T12:12:35;101264.72;;;1.10;100.00
82262;BME280;71861;52.364;6.580;2024-01-06T12:15:00;101268.91;;;1.11;100.00
82262;BME280;71861;52.364;6.580;2024-01-06T12:17:30;101262.06;;;1.12;100.00
82262;BME280;71861;52.364;6.580;2024-01-06T12:19:56;101265.38;;;1.14;100.00
82262;BME280;71861;52.364;6.580;2024-01-06T12:22:22;101257.13;;;1.09;100.00
82262;BME280;71861;52.364;6.580;2024-01-06T12:24:50;101266.63;;;1.07;100.00
82262;BME280;71861;52.364;6.580;2024-01-06T12:27:16;101266.63;;;1.07;100.00
82262;BME280;71861;52.364;6.580;2024-01-06T12:29:42;101271.66;;;1.08;100.00
82262;BME280;71861;52.364;6.580;2024-01-06T12:32:09;101268.28;;;1.08;100.00
82262;BME280;71861;52.364;6.580;2024-01-06T12:34:34;101271.66;;;1.08;100.00
82262;BME280;71861;52.364;6.580;2024-01-06T12:37:00;101270.00;;;1.07;100.00
82262;BME280;71861;52.364;6.580;2024-01-06T12:39:29;101273.41;;;1.08;100.00
82262;BME280;71861;52.364;6.580;2024-01-06T12:41:56;101271.03;;;1.05;100.00
82262;BME280;71861;52.364;6.580;2024-01-06T12:44:21;101278.34;;;1.11;100.00
82262;BME280;71861;52.364;6.580;2024-01-06T12:46:47;101270.75;;;1.09;100.00
82262;BME280;71861;52.364;6.580;2024-01-06T12:49:13;101261.84;;;1.01;100.00
82262;BME280;71861;52.364;6.580;2024-01-06T12:51:38;101267.28;;;1.10;100.00
82262;BME280;71861;52.364;6.580;2024-01-06T12:54:04;101278.44;;;1.09;100.00
82262;BME280;71861;52.364;6.580;2024-01-06T12:56:29;101278.44;;;1.09;100.00
82262;BME280;71861;52.364;6.580;2024-01-06T12:58:54;101281.88;;;1.08;100.00
82262;BME280;71861;52.364;6.580;2024-01-06T13:01:20;101280.25;;;1.07;100.00
82262;BME280;71861;52.364;6.580;2024-01-06T13:03:45;101288.00;;;1.06;100.00
82262;BME280;71861;52.364;6.580;2024-01-06T13:06:11;101274.91;;;0.96;100.00
82262;BME280;71861;52.364;6.580;2024-01-06T13:08:37;101289.06;;;1.02;100.00
82262;BME280;71861;52.364;6.580;2024-01-06T13:11:02;101295.94;;;1.01;100.00
82262;BME280;71861;52.364;6.580;2024-01-06T13:13:28;101296.84;;;1.00;100.00
82262;BME280;71861;52.364;6.580;2024-01-06T13:15:53;101298.50;;;1.01;100.00
82262;BME280;71861;52.364;6.580;2024-01-06T13:18:19;101306.19;;;1.01;100.00
82262;BME280;71861;52.364;6.580;2024-01-06T13:20:44;101302.88;;;0.99;100.00
82262;BME280;71861;52.364;6.580;2024-01-06T13:23:11;101303.13;;;0.95;100.00
82262;BME280;71861;52.364;6.580;2024-01-06T13:25:39;101312.88;;;0.88;100.00
82262;BME280;71861;52.364;6.580;2024-01-06T13:28:05;101319.75;;;0.88;100.00
82262;BME280;71861;52.364;6.580;2024-01-06T13:30:31;101317.28;;;0.86;100.00
82262;BME280;71861;52.364;6.580;2024-01-06T13:32:57;101314.72;;;0.86;100.00
82262;BME280;71861;52.364;6.580;2024-01-06T13:35:24;101319.00;;;0.86;100.00
82262;BME280;71861;52.364;6.580;2024-01-06T13:37:54;101313.06;;;0.85;100.00
82262;BME280;71861;52.364;6.580;2024-01-06T13:40:21;101321.47;;;0.87;100.00
82262;BME280;71861;52.364;6.580;2024-01-06T13:42:47;101327.34;;;0.89;100.00
82262;BME280;71861;52.364;6.580;2024-01-06T13:45:13;101328.31;;;0.87;100.00
82262;BME280;71861;52.364;6.580;2024-01-06T13:47:39;101330.88;;;0.87;100.00
82262;BME280;71861;52.364;6.580;2024-01-06T13:50:07;101328.22;;;0.88;100.00
82262;BME280;71861;52.364;6.580;2024-01-06T13:52:33;101326.44;;;0.90;100.00
82262;BME280;71861;52.364;6.580;2024-01-06T13:54:59;101328.97;;;0.90;100.00
82262;BME280;71861;52.364;6.580;2024-01-06T13:57:25;101324.88;;;0.88;100.00
82262;BME280;71861;52.364;6.580;2024-01-06T13:59:50;101330.72;;;0.90;100.00
82262;BME280;71861;52.364;6.580;2024-01-06T14:02:15;101341.13;;;0.87;100.00
82262;BME280;71861;52.364;6.580;2024-01-06T14:04:41;101319.44;;;0.78;100.00
82262;BME280;71861;52.364;6.580;2024-01-06T14:07:06;101339.72;;;0.81;100.00
82262;BME280;71861;52.364;6.580;2024-01-06T14:09:32;101345.59;;;0.83;100.00
82262;BME280;71861;52.364;6.580;2024-01-06T14:11:57;101328.50;;;0.84;100.00
82262;BME280;71861;52.364;6.580;2024-01-06T14:14:22;101345.66;;;0.82;100.00
82262;BME280;71861;52.364;6.580;2024-01-06T14:16:47;101351.69;;;0.81;100.00
82262;BME280;71861;52.364;6.580;2024-01-06T14:19:13;101347.41;;;0.81;100.00
82262;BME280;71861;52.364;6.580;2024-01-06T14:21:39;101352.34;;;0.84;100.00
82262;BME280;71861;52.364;6.580;2024-01-06T14:24:05;101354.91;;;0.84;100.00
82262;BME280;71861;52.364;6.580;2024-01-06T14:26:33;101357.31;;;0.87;100.00
82262;BME280;71861;52.364;6.580;2024-01-06T14:28:58;101362.50;;;0.86;100.00
82262;BME280;71861;52.364;6.580;2024-01-06T14:31:27;101364.31;;;0.84;100.00
82262;BME280;71861;52.364;6.580;2024-01-06T14:33:52;101365.31;;;0.81;100.00
82262;BME280;71861;52.364;6.580;2024-01-06T14:36:17;101377.34;;;0.79;100.00
82262;BME280;71861;52.364;6.580;2024-01-06T14:38:43;101381.53;;;0.80;100.00
82262;BME280;71861;52.364;6.580;2024-01-06T14:41:08;101380.81;;;0.78;100.00
82262;BME280;71861;52.364;6.580;2024-01-06T14:43:34;101387.75;;;0.76;100.00
82262;BME280;71861;52.364;6.580;2024-01-06T14:45:59;101387.00;;;0.74;100.00
82262;BME280;71861;52.364;6.580;2024-01-06T14:48:24;101387.00;;;0.74;100.00
82262;BME280;71861;52.364;6.580;2024-01-06T14:50:49;101391.22;;;0.75;100.00
82262;BME280;71861;52.364;6.580;2024-01-06T14:53:16;101397.97;;;0.76;100.00
82262;BME280;71861;52.364;6.580;2024-01-06T14:55:41;101405.66;;;0.76;100.00
82262;BME280;71861;52.364;6.580;2024-01-06T14:58:07;101414.09;;;0.78;100.00
82262;BME280;71861;52.364;6.580;2024-01-06T15:00:34;101404.09;;;0.74;100.00
82262;BME280;71861;52.364;6.580;2024-01-06T15:02:59;101421.09;;;0.75;100.00
82262;BME280;71861;52.364;6.580;2024-01-06T15:05:25;101427.03;;;0.75;100.00
82262;BME280;71861;52.364;6.580;2024-01-06T15:07:53;101428.84;;;0.73;100.00
82262;BME280;71861;52.364;6.580;2024-01-06T15:10:19;101434.88;;;0.72;100.00
82262;BME280;71861;52.364;6.580;2024-01-06T15:12:44;101433.97;;;0.73;100.00
82262;BME280;71861;52.364;6.580;2024-01-06T15:15:10;101430.47;;;0.74;100.00
82262;BME280;71861;52.364;6.580;2024-01-06T15:17:35;101443.44;;;0.71;100.00
82262;BME280;71861;52.364;6.580;2024-01-06T15:20:01;101440.97;;;0.70;100.00
82262;BME280;71861;52.364;6.580;2024-01-06T15:22:27;101441.38;;;0.62;100.00
82262;BME280;71861;52.364;6.580;2024-01-06T15:24:53;101444.75;;;0.63;100.00
82262;BME280;71861;52.364;6.580;2024-01-06T15:27:18;101455.66;;;0.66;100.00
82262;BME280;71861;52.364;6.580;2024-01-06T15:29:43;101454.00;;;0.65;100.00
82262;BME280;71861;52.364;6.580;2024-01-06T15:32:10;101453.19;;;0.65;100.00
82262;BME280;71861;52.364;6.580;2024-01-06T15:34:35;101464.22;;;0.65;100.00
82262;BME280;71861;52.364;6.580;2024-01-06T15:37:00;101462.59;;;0.64;100.00
82262;BME280;71861;52.364;6.580;2024-01-06T15:39:26;101471.00;;;0.66;100.00
82262;BME280;71861;52.364;6.580;2024-01-06T15:41:51;101464.22;;;0.65;100.00
82262;BME280;71861;52.364;6.580;2024-01-06T15:44:16;101467.69;;;0.64;100.00
82262;BME280;71861;52.364;6.580;2024-01-06T15:46:42;101482.28;;;0.62;100.00
82262;BME280;71861;52.364;6.580;2024-01-06T15:49:08;101491.63;;;0.63;100.00
82262;BME280;71861;52.364;6.580;2024-01-06T15:51:33;101494.19;;;0.63;100.00
82262;BME280;71861;52.364;6.580;2024-01-06T15:53:59;101496.75;;;0.63;100.00
82262;BME280;71861;52.364;6.580;2024-01-06T15:56:24;101489.19;;;0.60;100.00
82262;BME280;71861;52.364;6.580;2024-01-06T15:58:49;101493.44;;;0.61;100.00
82262;BME280;71861;52.364;6.580;2024-01-06T16:01:17;101495.22;;;0.59;100.00
82262;BME280;71861;52.364;6.580;2024-01-06T16:03:42;101494.41;;;0.59;100.00
82262;BME280;71861;52.364;6.580;2024-01-06T16:06:08;101498.72;;;0.58;100.00
82262;BME280;71861;52.364;6.580;2024-01-06T16:08:34;101496.16;;;0.58;100.00
82262;BME280;71861;52.364;6.580;2024-01-06T16:10:59;101502.00;;;0.60;100.00
82262;BME280;71861;52.364;6.580;2024-01-06T16:13:25;101496.94;;;0.59;100.00
82262;BME280;71861;52.364;6.580;2024-01-06T16:15:50;101502.31;;;0.54;100.00
82262;BME280;71861;52.364;6.580;2024-01-06T16:18:16;101505.78;;;0.53;100.00
82262;BME280;71861;52.364;6.580;2024-01-06T16:20:42;101513.38;;;0.55;100.00
82262;BME280;71861;52.364;6.580;2024-01-06T16:23:07;101504.94;;;0.53;100.00
82262;BME280;71861;52.364;6.580;2024-01-06T16:25:37;101515.84;;;0.56;100.00
82262;BME280;71861;52.364;6.580;2024-01-06T16:28:02;101518.56;;;0.53;100.00
82262;BME280;71861;52.364;6.580;2024-01-06T16:30:27;101516.91;;;0.52;100.00
82262;BME280;71861;52.364;6.580;2024-01-06T16:32:53;101525.41;;;0.53;100.00
82262;BME280;71861;52.364;6.580;2024-01-06T16:35:19;101524.59;;;0.52;100.00
82262;BME280;71861;52.364;6.580;2024-01-06T16:37:44;101529.88;;;0.49;100.00
82262;BME280;71861;52.364;6.580;2024-01-06T16:40:09;101529.94;;;0.48;100.00
82262;BME280;71861;52.364;6.580;2024-01-06T16:42:38;101533.31;;;0.48;100.00